createdAt,value
2022-08-07T00:00:40.089Z,85.92
2022-08-07T00:03:09.134Z,86.10
2022-08-07T00:05:37.471Z,85.74
2022-08-07T00:08:05.476Z,86.27
2022-08-07T00:10:36.244Z,86.97
2022-08-07T00:13:23.630Z,87.21
2022-08-07T00:15:53.324Z,87.77
2022-08-07T00:18:28.679Z,87.23
2022-08-07T00:21:01.740Z,87.03
2022-08-07T00:23:32.581Z,87.07
2022-08-07T00:26:12.819Z,87.51
2022-08-07T00:28:45.943Z,87.45
2022-08-07T00:31:24.980Z,87.21
2022-08-07T00:34:04.754Z,86.98
2022-08-07T00:36:38.625Z,87.83
2022-08-07T00:39:12.744Z,88.01
2022-08-07T00:42:02.456Z,88.71
2022-08-07T00:44:33.849Z,88.52
2022-08-07T00:47:06.582Z,89.10
2022-08-07T00:50:20.775Z,88.89
2022-08-07T00:52:33.286Z,88.44
2022-08-07T00:55:04.656Z,89.47
2022-08-07T00:57:38.133Z,89.71
2022-08-07T01:00:23.040Z,89.95
2022-08-07T01:02:51.666Z,90.12
2022-08-07T01:05:20.960Z,89.50
2022-08-07T01:07:52.114Z,90.94
2022-08-07T01:10:19.920Z,90.72
2022-08-07T01:12:53.809Z,90.28
2022-08-07T01:15:36.042Z,89.77
2022-08-07T01:18:16.936Z,91.28
2022-08-07T01:20:57.347Z,92.71
2022-08-07T01:23:38.778Z,92.51
2022-08-07T01:26:12.097Z,93.16
2022-08-07T01:28:46.158Z,92.93
2022-08-07T01:31:19.446Z,92.57
2022-08-07T01:33:56.218Z,91.64
2022-08-07T01:36:33.425Z,92.10
2022-08-07T01:39:10.739Z,91.40
2022-08-07T01:42:07.403Z,91.59
2022-08-07T01:44:32.354Z,91.43
2022-08-07T01:47:01.196Z,92.09
2022-08-07T01:49:43.117Z,92.62
2022-08-07T01:52:11.808Z,93.41
2022-08-07T01:54:44.874Z,93.14
2022-08-07T01:57:24.878Z,92.34
2022-08-07T02:00:12.942Z,93.32
2022-08-07T02:03:11.918Z,92.56
2022-08-07T02:05:48.641Z,92.39
2022-08-07T02:08:33.582Z,92.78
2022-08-07T02:11:03.705Z,93.13
2022-08-07T02:13:58.192Z,93.37
2022-08-07T02:16:28.670Z,93.65
2022-08-07T02:19:05.548Z,94.36
2022-08-07T02:21:55.245Z,93.87
2022-08-07T02:24:25.959Z,93.21
2022-08-07T02:27:01.177Z,93.29
2022-08-07T02:29:31.607Z,93.92
2022-08-07T02:32:01.517Z,93.66
2022-08-07T02:34:30.412Z,92.87
2022-08-07T02:37:04.045Z,94.80
2022-08-07T02:39:42.472Z,94.84
2022-08-07T02:42:16.785Z,94.31
2022-08-07T02:44:50.375Z,94.82
2022-08-07T02:47:24.747Z,94.75
2022-08-07T02:49:59.954Z,95.29
2022-08-07T02:52:37.450Z,95.67
2022-08-07T02:55:15.454Z,95.00
2022-08-07T02:57:59.115Z,94.94
2022-08-07T03:00:30.136Z,95.04
2022-08-07T03:02:59.985Z,95.55
2022-08-07T03:05:35.973Z,94.44
2022-08-07T03:08:09.367Z,95.81
2022-08-07T03:10:46.671Z,95.42
2022-08-07T03:13:19.604Z,95.30
2022-08-07T03:15:56.120Z,95.60
2022-08-07T03:18:25.895Z,95.63
2022-08-07T03:21:08.572Z,95.60
2022-08-07T03:24:20.685Z,95.72
2022-08-07T03:26:32.272Z,95.51
2022-08-07T03:29:06.277Z,96.42
2022-08-07T03:31:42.641Z,96.88
2022-08-07T03:34:18.727Z,95.90
2022-08-07T03:36:53.628Z,95.76
2022-08-07T03:39:46.098Z,95.63
2022-08-07T03:42:15.269Z,96.10
2022-08-07T03:44:47.229Z,96.27
2022-08-07T03:47:22.747Z,96.55
2022-08-07T03:49:52.572Z,97.15
2022-08-07T03:52:26.440Z,96.21
2022-08-07T03:55:06.228Z,96.22
2022-08-07T03:58:33.993Z,96.40
2022-08-07T04:00:33.795Z,96.20
2022-08-07T04:03:03.900Z,97.69
2022-08-07T04:05:39.709Z,96.63
2022-08-07T04:08:16.240Z,97.54
2022-08-07T04:10:53.845Z,96.98
2022-08-07T04:14:10.375Z,97.19
2022-08-07T04:16:31.561Z,97.50
2022-08-07T04:19:04.370Z,97.05
2022-08-07T04:21:59.371Z,97.67
2022-08-07T04:24:39.181Z,97.06
2022-08-07T04:27:20.364Z,98.66
2022-08-07T04:30:01.197Z,97.81
2022-08-07T04:32:36.571Z,98.24
2022-08-07T04:35:11.455Z,97.90
2022-08-07T04:37:52.882Z,97.29
2022-08-07T04:40:29.994Z,96.90
2022-08-07T04:43:01.317Z,97.07
2022-08-07T04:45:57.763Z,96.85
2022-08-07T04:48:35.421Z,96.36
2022-08-07T04:51:11.117Z,95.99
2022-08-07T04:54:05.251Z,96.63
2022-08-07T04:58:14.032Z,96.01
2022-08-07T05:00:14.625Z,95.53
2022-08-07T05:03:02.738Z,95.23
2022-08-07T05:05:53.605Z,94.64
2022-08-07T05:08:59.110Z,95.08
2022-08-07T05:11:56.892Z,92.89
2022-08-07T05:14:59.137Z,93.42
2022-08-07T05:17:52.480Z,93.29
2022-08-07T05:20:24.943Z,92.40
2022-08-07T05:22:59.505Z,92.79
2022-08-07T05:25:54.623Z,92.47
2022-08-07T05:28:22.858Z,91.29
2022-08-07T05:30:55.461Z,90.61
2022-08-07T05:33:26.407Z,90.78
2022-08-07T05:35:55.664Z,89.64
2022-08-07T05:39:01.236Z,89.97
2022-08-07T05:41:15.785Z,90.16
2022-08-07T05:44:08.806Z,89.35
2022-08-07T05:46:42.912Z,89.52
2022-08-07T05:49:12.753Z,87.08
2022-08-07T05:51:46.264Z,88.77
2022-08-07T05:54:31.113Z,87.15
2022-08-07T05:57:09.074Z,86.63
2022-08-07T05:59:39.047Z,86.32
2022-08-07T06:02:28.622Z,84.94
2022-08-07T06:05:04.628Z,84.19
2022-08-07T06:08:13.921Z,83.85
2022-08-07T06:10:23.418Z,84.34
2022-08-07T06:12:50.907Z,83.88
2022-08-07T06:15:20.015Z,83.22
2022-08-07T06:17:50.701Z,82.24
2022-08-07T06:20:38.106Z,82.68
2022-08-07T06:23:46.435Z,80.55
2022-08-07T06:26:00.373Z,80.98
2022-08-07T06:28:28.635Z,81.08
2022-08-07T06:30:58.060Z,78.79
2022-08-07T06:33:27.192Z,77.35
2022-08-07T06:36:13.219Z,77.58
2022-08-07T06:38:58.357Z,78.20
2022-08-07T06:42:04.482Z,76.68
2022-08-07T06:44:56.741Z,74.63
2022-08-07T06:47:24.603Z,73.75
2022-08-07T06:49:58.572Z,73.02
2022-08-07T06:52:36.641Z,71.55
2022-08-07T06:55:34.199Z,71.63
2022-08-07T06:58:06.194Z,69.77
2022-08-07T07:00:45.007Z,69.15
2022-08-07T07:03:14.457Z,68.05
2022-08-07T07:06:03.981Z,67.92
2022-08-07T07:08:34.141Z,68.51
2022-08-07T07:11:14.094Z,67.69
2022-08-07T07:13:57.572Z,66.85
2022-08-07T07:16:39.014Z,66.59
2022-08-07T07:19:56.130Z,65.78
2022-08-07T07:22:33.988Z,65.85
2022-08-07T07:25:03.070Z,64.82
2022-08-07T07:27:58.605Z,64.19
2022-08-07T07:30:38.404Z,64.11
2022-08-07T07:33:13.667Z,63.20
2022-08-07T07:36:04.072Z,62.38
2022-08-07T07:38:40.347Z,61.39
2022-08-07T07:41:12.730Z,61.02
2022-08-07T07:44:14.749Z,60.56
2022-08-07T07:46:37.564Z,60.02
2022-08-07T07:50:31.349Z,59.86
2022-08-07T07:52:13.930Z,58.29
2022-08-07T07:54:50.450Z,58.70
2022-08-07T07:57:51.945Z,58.61
2022-08-07T08:00:21.181Z,57.71
2022-08-07T08:03:05.820Z,57.74
2022-08-07T08:05:42.841Z,57.61
2022-08-07T08:08:35.554Z,56.77
2022-08-07T08:11:16.064Z,56.08
2022-08-07T08:13:54.956Z,55.66
2022-08-07T08:16:50.639Z,57.21
2022-08-07T08:20:17.680Z,55.02
2022-08-07T08:22:32.880Z,54.74
2022-08-07T08:25:41.965Z,53.99
2022-08-07T08:28:16.978Z,53.92
2022-08-07T08:30:57.483Z,53.65
2022-08-07T08:33:28.805Z,53.26
2022-08-07T08:36:01.618Z,52.79
2022-08-07T08:38:40.479Z,51.09
2022-08-07T08:41:17.398Z,50.87
2022-08-07T08:43:59.128Z,51.34
2022-08-07T08:46:46.010Z,50.89
2022-08-07T08:49:46.787Z,49.36
2022-08-07T08:52:32.301Z,48.55
2022-08-07T08:55:54.585Z,48.16
2022-08-07T08:59:12.892Z,48.13
2022-08-07T09:02:00.405Z,47.41
2022-08-07T09:04:46.258Z,47.96
2022-08-07T09:07:23.044Z,46.46
2022-08-07T09:10:07.911Z,46.92
2022-08-07T09:12:53.295Z,45.96
2022-08-07T09:16:22.880Z,44.87
2022-08-07T09:18:32.040Z,44.60
2022-08-07T09:21:33.859Z,41.64
2022-08-07T09:24:55.407Z,45.05
2022-08-07T09:27:30.616Z,43.81
2022-08-07T09:30:08.777Z,45.39
2022-08-07T09:32:51.701Z,44.47
2022-08-07T09:36:05.384Z,41.97
2022-08-07T09:38:34.032Z,43.74
2022-08-07T09:41:21.290Z,44.29
2022-08-07T09:44:05.661Z,43.92
2022-08-07T09:47:50.719Z,41.25
2022-08-07T09:50:19.699Z,40.71
2022-08-07T09:52:51.616Z,41.79
2022-08-07T09:55:29.494Z,41.98
2022-08-07T09:58:35.078Z,42.14
2022-08-07T10:01:51.646Z,40.39
2022-08-07T10:04:47.658Z,39.52
2022-08-07T10:08:15.975Z,39.01
2022-08-07T10:12:03.127Z,38.99
2022-08-07T10:14:42.957Z,38.56
2022-08-07T10:18:01.056Z,38.44
2022-08-07T10:20:35.338Z,38.97
2022-08-07T10:24:05.546Z,41.84
2022-08-07T10:26:44.071Z,38.84
2022-08-07T10:29:23.745Z,39.21
2022-08-07T10:32:36.855Z,37.23
2022-08-07T10:35:27.234Z,40.99
2022-08-07T10:38:48.660Z,39.64
2022-08-07T10:41:53.131Z,41.23
2022-08-07T10:44:38.700Z,39.09
2022-08-07T10:47:53.830Z,40.37
2022-08-07T10:50:34.061Z,38.72
2022-08-07T10:53:44.426Z,38.13
2022-08-07T10:56:40.860Z,37.77
2022-08-07T10:59:30.200Z,37.59
2022-08-07T11:02:12.107Z,38.76
2022-08-07T11:05:10.164Z,37.14
2022-08-07T11:07:58.879Z,38.86
2022-08-07T11:10:38.805Z,40.32
2022-08-07T11:14:42.016Z,38.77
2022-08-07T11:16:11.558Z,36.16
2022-08-07T11:18:56.485Z,39.65
2022-08-07T11:21:45.111Z,38.21
2022-08-07T11:24:23.998Z,37.49
2022-08-07T11:27:07.072Z,40.43
2022-08-07T11:30:10.082Z,36.26
2022-08-07T11:33:07.891Z,37.20
2022-08-07T11:35:59.746Z,37.42
2022-08-07T11:38:37.331Z,37.27
2022-08-07T11:41:18.249Z,39.21
2022-08-07T11:44:32.460Z,38.57
2022-08-07T11:47:23.104Z,37.44
2022-08-07T11:50:31.931Z,35.77
2022-08-07T11:53:16.728Z,35.36
2022-08-07T11:56:25.318Z,35.27
2022-08-07T12:00:10.290Z,36.95
2022-08-07T12:02:17.755Z,35.46
2022-08-07T12:05:15.015Z,33.83
2022-08-07T12:08:03.743Z,32.67
2022-08-07T12:10:35.875Z,33.63
2022-08-07T12:13:17.149Z,35.06
2022-08-07T12:16:06.142Z,33.19
2022-08-07T12:18:52.769Z,34.44
2022-08-07T12:22:35.706Z,34.57
2022-08-07T12:24:40.258Z,36.03
2022-08-07T12:27:16.757Z,34.88
2022-08-07T12:29:47.487Z,35.36
2022-08-07T12:32:43.911Z,35.08
2022-08-07T12:35:13.375Z,35.15
2022-08-07T12:38:09.527Z,36.57
2022-08-07T12:40:50.289Z,38.26
2022-08-07T12:44:02.110Z,36.22
2022-08-07T12:46:32.684Z,32.95
2022-08-07T12:49:44.316Z,33.07
2022-08-07T12:52:36.223Z,32.92
2022-08-07T12:55:17.562Z,33.46
2022-08-07T12:58:02.294Z,35.32
2022-08-07T13:00:50.891Z,32.53
2022-08-07T13:03:54.970Z,33.95
2022-08-07T13:06:27.793Z,36.19
2022-08-07T13:09:12.627Z,35.31
2022-08-07T13:12:23.690Z,33.66
2022-08-07T13:15:09.302Z,35.28
2022-08-07T13:17:46.561Z,33.22
2022-08-07T13:21:00.936Z,35.04
2022-08-07T13:24:04.034Z,34.34
2022-08-07T13:26:53.656Z,32.90
2022-08-07T13:29:42.283Z,31.35
2022-08-07T13:32:32.865Z,32.06
2022-08-07T13:35:11.724Z,31.53
2022-08-07T13:38:01.977Z,31.77
2022-08-07T13:40:42.753Z,31.30
2022-08-07T13:43:13.194Z,32.58
2022-08-07T13:46:16.447Z,31.93
2022-08-07T13:48:34.610Z,31.47
2022-08-07T13:51:27.207Z,31.99
2022-08-07T13:54:00.356Z,33.13
2022-08-07T13:56:35.790Z,32.42
2022-08-07T13:59:13.018Z,31.22
2022-08-07T14:02:04.470Z,31.70
2022-08-07T14:04:47.318Z,33.11
2022-08-07T14:07:24.368Z,31.63
2022-08-07T14:10:01.509Z,31.93
2022-08-07T14:12:55.183Z,33.42
2022-08-07T14:15:43.740Z,32.13
2022-08-07T14:18:29.707Z,31.60
2022-08-07T14:22:02.283Z,31.69
2022-08-07T14:24:06.167Z,32.58
2022-08-07T14:26:50.337Z,31.70
2022-08-07T14:30:05.757Z,31.22
2022-08-07T14:32:19.123Z,31.44
2022-08-07T14:34:48.120Z,31.29
2022-08-07T14:37:32.946Z,30.67
2022-08-07T14:40:15.935Z,30.97
2022-08-07T14:43:57.179Z,30.19
2022-08-07T14:45:59.853Z,32.61
2022-08-07T14:48:33.923Z,30.95
2022-08-07T14:51:07.228Z,31.56
2022-08-07T14:54:05.764Z,30.80
2022-08-07T14:56:33.656Z,31.43
2022-08-07T14:59:13.616Z,31.39
2022-08-07T15:01:54.239Z,31.87
2022-08-07T15:04:25.893Z,31.50
2022-08-07T15:06:57.094Z,31.85
2022-08-07T15:09:57.573Z,31.31
2022-08-07T15:12:34.904Z,32.82
2022-08-07T15:15:08.160Z,30.09
2022-08-07T15:17:54.934Z,30.34
2022-08-07T15:25:16.236Z,30.54
2022-08-07T15:26:21.237Z,30.31
2022-08-07T15:32:01.274Z,29.26
2022-08-07T15:40:33.955Z,30.13
2022-08-07T15:43:53.661Z,29.77
2022-08-07T15:49:11.645Z,28.95
2022-08-07T15:54:39.653Z,27.53
2022-08-07T15:57:27.968Z,27.25
2022-08-07T16:00:04.364Z,27.02
2022-08-07T16:02:41.727Z,26.74
2022-08-07T16:05:17.587Z,26.75
2022-08-07T16:08:33.394Z,25.84
2022-08-07T16:10:51.872Z,25.86
2022-08-07T16:14:00.026Z,24.40
2022-08-07T16:16:47.570Z,24.69
2022-08-07T16:19:42.021Z,23.83
2022-08-07T16:22:36.466Z,24.20
2022-08-07T16:25:54.831Z,23.40
2022-08-07T16:29:18.787Z,25.19
2022-08-07T16:31:51.754Z,22.61
2022-08-07T16:34:42.098Z,23.59
2022-08-07T16:38:04.117Z,21.95
2022-08-07T16:40:57.081Z,21.88
2022-08-07T16:44:06.368Z,22.06
2022-08-07T16:47:04.567Z,21.61
2022-08-07T16:50:27.930Z,21.97
2022-08-07T16:53:20.756Z,21.06
2022-08-07T16:56:08.991Z,21.39
2022-08-07T16:59:11.275Z,21.82
2022-08-07T17:01:50.935Z,21.42
2022-08-07T17:04:59.267Z,20.99
2022-08-07T17:07:55.445Z,20.82
2022-08-07T17:10:33.863Z,21.62
2022-08-07T17:13:04.317Z,22.06
2022-08-07T17:15:50.586Z,22.61
2022-08-07T17:18:30.790Z,21.00
2022-08-07T17:20:58.439Z,22.80
2022-08-07T17:23:32.638Z,21.95
2022-08-07T17:26:22.775Z,21.15
2022-08-07T17:28:58.317Z,20.88
2022-08-07T17:31:44.433Z,21.37
2022-08-07T17:35:41.467Z,21.12
2022-08-07T17:38:06.665Z,21.52
2022-08-07T17:40:43.039Z,23.83
2022-08-07T17:44:01.886Z,27.36
2022-08-07T17:46:34.761Z,28.86
2022-08-07T17:49:13.890Z,30.60
2022-08-07T17:52:01.342Z,31.63
2022-08-07T17:54:53.241Z,32.56
2022-08-07T17:57:58.310Z,33.17
2022-08-07T18:00:34.271Z,33.94
2022-08-07T18:03:28.662Z,34.48
2022-08-07T18:06:36.997Z,34.50
2022-08-07T18:09:08.635Z,35.04
2022-08-07T18:12:12.070Z,35.54
2022-08-07T18:14:45.099Z,35.85
2022-08-07T18:18:45.695Z,36.22
2022-08-07T18:21:07.961Z,36.63
2022-08-07T18:23:50.620Z,36.75
2022-08-07T18:26:30.937Z,37.06
2022-08-07T18:30:05.750Z,37.75
2022-08-07T18:32:29.894Z,37.59
2022-08-07T18:35:51.740Z,38.24
2022-08-07T18:38:57.755Z,38.20
2022-08-07T18:41:54.597Z,38.49
2022-08-07T18:45:44.168Z,38.82
2022-08-07T18:47:45.357Z,38.98
2022-08-07T18:50:44.110Z,39.77
2022-08-07T18:53:21.918Z,40.02
2022-08-07T18:56:31.821Z,39.93
2022-08-07T18:58:59.060Z,40.10
2022-08-07T19:02:18.140Z,40.41
2022-08-07T19:06:01.648Z,40.69
2022-08-07T19:08:22.696Z,40.74
2022-08-07T19:11:35.130Z,41.29
2022-08-07T19:14:08.148Z,41.48
2022-08-07T19:17:07.092Z,41.54
2022-08-07T19:20:04.547Z,41.63
2022-08-07T19:23:18.239Z,42.02
2022-08-07T19:26:22.768Z,42.27
2022-08-07T19:30:55.161Z,42.59
2022-08-07T19:31:59.768Z,42.41
2022-08-07T19:34:33.801Z,43.19
2022-08-07T19:37:16.764Z,43.23
2022-08-07T19:39:57.759Z,43.29
2022-08-07T19:42:31.456Z,44.17
2022-08-07T19:45:09.362Z,43.91
2022-08-07T19:47:43.113Z,44.10
2022-08-07T19:50:45.120Z,44.43
2022-08-07T19:52:59.186Z,44.42
2022-08-07T19:55:56.540Z,44.46
2022-08-07T19:58:28.375Z,44.60
2022-08-07T20:00:57.484Z,45.08
2022-08-07T20:03:34.751Z,44.68
2022-08-07T20:06:05.031Z,44.84
2022-08-07T20:08:35.919Z,45.09
2022-08-07T20:11:15.082Z,45.28
2022-08-07T20:13:55.172Z,45.24
2022-08-07T20:16:34.821Z,45.54
2022-08-07T20:19:06.114Z,45.24
2022-08-07T20:21:42.160Z,45.43
2022-08-07T20:24:18.927Z,45.59
2022-08-07T20:26:54.636Z,46.21
2022-08-07T20:29:48.061Z,45.66
2022-08-07T20:32:22.935Z,46.08
2022-08-07T20:34:57.351Z,46.16
2022-08-07T20:37:55.351Z,48.69
2022-08-07T20:40:33.454Z,50.13
2022-08-07T20:43:09.417Z,51.33
2022-08-07T20:46:29.060Z,52.28
2022-08-07T20:48:34.111Z,53.23
2022-08-07T20:51:04.062Z,52.66
2022-08-07T20:54:04.480Z,53.93
2022-08-07T20:56:30.477Z,53.99
2022-08-07T20:59:05.328Z,55.21
2022-08-07T21:01:45.207Z,55.52
2022-08-07T21:04:22.080Z,55.64
2022-08-07T21:06:55.339Z,56.62
2022-08-07T21:09:51.914Z,57.62
2022-08-07T21:12:28.503Z,57.79
2022-08-07T21:14:59.303Z,58.54
2022-08-07T21:18:17.057Z,59.76
2022-08-07T21:20:26.794Z,60.15
2022-08-07T21:23:07.672Z,59.00
2022-08-07T21:26:03.076Z,59.57
2022-08-07T21:28:49.359Z,60.02
2022-08-07T21:32:42.089Z,60.62
2022-08-07T21:34:48.347Z,61.43
2022-08-07T21:37:58.465Z,62.20
2022-08-07T21:40:35.723Z,61.14
2022-08-07T21:43:10.986Z,62.80
2022-08-07T21:46:09.720Z,63.55
2022-08-07T21:48:56.538Z,64.15
2022-08-07T21:51:27.307Z,64.24
2022-08-07T21:54:21.990Z,64.50
2022-08-07T21:57:31.353Z,64.50
2022-08-07T22:00:22.585Z,65.88
2022-08-07T22:03:05.717Z,65.89
2022-08-07T22:05:45.878Z,65.73
2022-08-07T22:08:19.872Z,65.41
2022-08-07T22:10:50.181Z,66.63
2022-08-07T22:13:24.545Z,67.24
2022-08-07T22:16:38.695Z,66.69
2022-08-07T22:19:53.922Z,66.92
2022-08-07T22:22:33.806Z,66.73
2022-08-07T22:25:26.631Z,67.33
2022-08-07T22:28:29.784Z,68.13
2022-08-07T22:31:05.571Z,68.17
2022-08-07T22:33:56.493Z,68.68
2022-08-07T22:37:02.127Z,67.52
2022-08-07T22:39:58.879Z,69.31
2022-08-07T22:42:30.760Z,68.96
2022-08-07T22:45:03.503Z,69.45
2022-08-07T22:48:31.712Z,69.56
2022-08-07T22:51:21.135Z,70.68
2022-08-07T22:54:05.239Z,70.74
2022-08-07T22:56:38.378Z,71.40
2022-08-07T22:59:36.826Z,71.79
2022-08-07T23:02:24.650Z,71.51
2022-08-07T23:06:08.525Z,72.57
2022-08-07T23:08:30.093Z,72.14
2022-08-07T23:11:16.933Z,72.97
2022-08-07T23:14:16.200Z,72.96
2022-08-07T23:17:01.864Z,73.20
2022-08-07T23:19:58.056Z,72.89
2022-08-07T23:22:43.874Z,73.96
2022-08-07T23:25:24.249Z,73.87
2022-08-07T23:28:21.574Z,74.59
2022-08-07T23:32:48.939Z,74.33
2022-08-07T23:34:37.403Z,75.09
2022-08-07T23:38:01.366Z,75.30
2022-08-07T23:40:34.688Z,75.76
2022-08-07T23:43:37.960Z,76.50
2022-08-07T23:46:12.273Z,76.74
2022-08-07T23:48:58.927Z,77.12
2022-08-07T23:53:01.819Z,77.79
2022-08-07T23:54:36.430Z,77.86
2022-08-07T23:57:25.166Z,77.87
